Terminal Aerodrome Forecast
Issued by NWS

Home | Current Version | Previous Version | Text Only | Print | Product List | Glossary On
Versions: 1 2 3 4 5 6 7 8 9 10 11 12 13 14 15 16 17 18 19
000
FTUS45 KBOU 271131
TAFBJC
TAF
KBJC 271131Z 2712/2812 36010KT P6SM SCT060 BKN100
     FM271700 03011KT P6SM VCSH SCT050 BKN070
      TEMPO 2718/2722 -SHRA OVC050
     FM280000 VRB06KT P6SM SCT040 BKN100
     FM280300 27006KT P6SM FEW060 BKN200=

USA.gov is the U.S. government's official web portal to all federal, state and local government web resources and services.